Time,TemperatureF,DewpointF,PressureIn,WindDirection,WindDirectionDegrees,WindSpeedMPH,WindSpeedGustMPH,Humidity,HourlyPrecipIn,Conditions,Clouds,dailyrainin,SoftwareType,DateUTC
2013-06-20 00:02:00,68.0,59.0,-100.00,NNE,31,2.0,5.0,74,0.00,,,0.00,,2013-06-20 04:02:00,
2013-06-20 00:11:00,68.0,59.0,-100.00,NNE,31,2.0,5.0,74,0.00,,,0.00,,2013-06-20 04:11:00,
2013-06-20 00:23:00,68.0,58.0,-100.00,NE,49,4.0,7.0,71,0.00,,,0.00,,2013-06-20 04:23:00,
2013-06-20 00:34:00,68.0,58.0,-100.00,NE,51,4.0,6.0,71,0.00,,,0.00,,2013-06-20 04:34:00,
2013-06-20 00:43:00,68.0,58.0,-100.00,NE,51,4.0,6.0,71,0.00,,,0.00,,2013-06-20 04:43:00,
2013-06-20 00:54:00,68.0,58.0,-100.00,NE,44,4.0,6.0,72,0.00,,,0.00,,2013-06-20 04:54:00,
2013-06-20 01:02:00,68.0,58.0,-100.00,NE,52,5.0,7.0,71,0.00,,,0.00,,2013-06-20 05:02:00,
2013-06-20 01:12:00,68.0,58.0,-100.00,NE,52,5.0,7.0,71,0.00,,,0.00,,2013-06-20 05:12:00,
2013-06-20 01:22:00,68.0,58.0,-100.00,NE,54,3.0,5.0,72,0.00,,,0.00,,2013-06-20 05:22:00,
2013-06-20 01:33:00,68.0,58.0,-100.00,NE,52,4.0,6.0,73,0.00,,,0.00,,2013-06-20 05:33:00,
2013-06-20 01:44:00,68.0,58.0,-100.00,NE,52,4.0,6.0,73,0.00,,,0.00,,2013-06-20 05:44:00,
2013-06-20 01:53:00,67.0,59.0,-100.00,NE,49,4.0,7.0,75,0.00,,,0.00,,2013-06-20 05:53:00,
2013-06-20 02:02:00,67.0,60.0,-100.00,ENE,61,4.0,6.0,77,0.00,,,0.00,,2013-06-20 06:02:00,
2013-06-20 02:11:00,67.0,60.0,-100.00,ENE,61,4.0,6.0,77,0.00,,,0.00,,2013-06-20 06:11:00,
2013-06-20 02:22:00,67.0,60.0,-100.00,NE,56,6.0,9.0,78,0.00,,,0.00,,2013-06-20 06:22:00,
2013-06-20 02:34:00,67.0,60.0,-100.00,ENE,62,4.0,6.0,79,0.00,,,0.00,,2013-06-20 06:34:00,
2013-06-20 02:43:00,67.0,60.0,-100.00,ENE,62,4.0,6.0,79,0.00,,,0.00,,2013-06-20 06:43:00,
2013-06-20 02:53:00,64.0,59.0,-100.00,West,264,1.0,2.0,84,0.00,,,0.00,,2013-06-20 06:53:00,
2013-06-20 03:01:00,63.0,59.0,-100.00,West,263,3.0,4.0,87,0.00,,,0.00,,2013-06-20 07:01:00,
2013-06-20 03:12:00,63.0,59.0,-100.00,West,263,3.0,4.0,87,0.00,,,0.00,,2013-06-20 07:12:00,
2013-06-20 03:22:00,63.0,59.0,-100.00,West,263,3.0,4.0,87,0.00,,,0.00,,2013-06-20 07:22:00,
2013-06-20 03:34:00,63.0,60.0,-100.00,NW,311,1.0,2.0,90,0.00,,,0.00,,2013-06-20 07:34:00,
2013-06-20 03:44:00,63.0,60.0,-100.00,NW,311,1.0,2.0,90,0.00,,,0.00,,2013-06-20 07:44:00,
2013-06-20 03:53:00,63.0,60.0,-100.00,SSW,196,1.0,3.0,90,0.00,,,0.00,,2013-06-20 07:53:00,
2013-06-20 04:02:00,63.0,60.0,-100.00,SSW,196,1.0,3.0,90,0.00,,,0.00,,2013-06-20 08:02:00,
2013-06-20 04:11:00,63.0,60.0,-100.00,NNW,339,0.0,1.0,92,0.00,,,0.00,,2013-06-20 08:11:00,
2013-06-20 04:22:00,63.0,60.0,-100.00,North,11,1.0,2.0,91,0.00,,,0.00,,2013-06-20 08:22:00,
2013-06-20 04:34:00,63.0,60.0,-100.00,North,354,2.0,3.0,89,0.00,,,0.00,,2013-06-20 08:34:00,
2013-06-20 04:43:00,63.0,60.0,-100.00,North,354,2.0,3.0,89,0.00,,,0.00,,2013-06-20 08:43:00,
2013-06-20 04:53:00,63.0,60.0,-100.00,North,360,3.0,4.0,89,0.00,,,0.00,,2013-06-20 08:53:00,
2013-06-20 05:02:00,63.0,60.0,-100.00,NNW,336,1.0,2.0,89,0.00,,,0.00,,2013-06-20 09:02:00,
2013-06-20 05:12:00,63.0,60.0,-100.00,NNW,336,1.0,2.0,89,0.00,,,0.00,,2013-06-20 09:12:00,
2013-06-20 05:22:00,63.0,60.0,-100.00,NNW,336,1.0,2.0,89,0.00,,,0.00,,2013-06-20 09:22:00,
2013-06-20 05:33:00,63.0,60.0,-100.00,North,3,2.0,3.0,89,0.00,,,0.00,,2013-06-20 09:33:00,
2013-06-20 05:42:00,63.0,60.0,-100.00,North,356,2.0,3.0,89,0.00,,,0.00,,2013-06-20 09:42:00,
2013-06-20 05:52:00,63.0,60.0,-100.00,WNW,285,1.0,2.0,89,0.00,,,0.00,,2013-06-20 09:52:00,
2013-06-20 06:01:00,63.0,60.0,-100.00,WNW,285,1.0,2.0,89,0.00,,,0.00,,2013-06-20 10:01:00,
2013-06-20 06:11:00,63.0,60.0,-100.00,NNW,336,3.0,4.0,89,0.00,,,0.00,,2013-06-20 10:11:00,
2013-06-20 06:22:00,63.0,60.0,-100.00,North,3,0.0,2.0,90,0.00,,,0.00,,2013-06-20 10:22:00,
2013-06-20 06:34:00,63.0,60.0,-100.00,NNE,24,0.0,1.0,90,0.00,,,0.00,,2013-06-20 10:34:00,
2013-06-20 06:43:00,63.0,60.0,-100.00,NNE,24,0.0,1.0,90,0.00,,,0.00,,2013-06-20 10:43:00,
2013-06-20 06:53:00,62.0,60.0,-100.00,North,360,2.0,3.0,91,0.00,,,0.00,,2013-06-20 10:53:00,
2013-06-20 07:02:00,63.0,60.0,-100.00,NNW,340,2.0,3.0,91,0.00,,,0.00,,2013-06-20 11:02:00,
2013-06-20 07:12:00,63.0,60.0,-100.00,NNW,340,2.0,3.0,91,0.00,,,0.00,,2013-06-20 11:12:00,
2013-06-20 07:22:00,63.0,60.0,-100.00,NNW,340,2.0,3.0,91,0.00,,,0.00,,2013-06-20 11:22:00,
2013-06-20 07:34:00,62.0,60.0,-100.00,WSW,244,0.0,1.0,92,0.00,,,0.00,,2013-06-20 11:34:00,
2013-06-20 07:43:00,63.0,61.0,-100.00,NNE,21,1.0,2.0,91,0.00,,,0.00,,2013-06-20 11:43:00,
2013-06-20 07:53:00,64.0,61.0,-100.00,NW,306,1.0,2.0,89,0.00,,,0.00,,2013-06-20 11:53:00,
2013-06-20 08:02:00,63.0,60.0,-100.00,West,261,2.0,4.0,90,0.00,,,0.00,,2013-06-20 12:02:00,
2013-06-20 08:12:00,63.0,60.0,-100.00,West,261,2.0,4.0,90,0.00,,,0.00,,2013-06-20 12:12:00,
2013-06-20 08:22:00,63.0,60.0,-100.00,West,261,2.0,4.0,90,0.00,,,0.00,,2013-06-20 12:22:00,
2013-06-20 08:34:00,64.0,61.0,-100.00,SE,136,0.0,1.0,90,0.00,,,0.00,,2013-06-20 12:34:00,
2013-06-20 08:43:00,67.0,63.0,-100.00,SSE,165,0.0,0.0,87,0.00,,,0.00,,2013-06-20 12:43:00,
2013-06-20 08:53:00,65.0,61.0,-100.00,ENE,64,1.0,2.0,87,0.00,,,0.00,,2013-06-20 12:53:00,
2013-06-20 09:02:00,65.0,61.0,-100.00,ENE,64,1.0,2.0,87,0.00,,,0.00,,2013-06-20 13:02:00,
2013-06-20 09:11:00,69.0,63.0,-100.00,East,92,2.0,3.0,81,0.00,,,0.00,,2013-06-20 13:11:00,
2013-06-20 09:22:00,69.0,63.0,-100.00,East,92,2.0,3.0,81,0.00,,,0.00,,2013-06-20 13:22:00,
2013-06-20 09:33:00,71.0,63.0,-100.00,SW,215,1.0,2.0,77,0.00,,,0.00,,2013-06-20 13:33:00,
2013-06-20 09:42:00,71.0,63.0,-100.00,SW,215,1.0,2.0,77,0.00,,,0.00,,2013-06-20 13:42:00,
2013-06-20 09:53:00,72.0,63.0,-100.00,SSW,202,1.0,3.0,74,0.00,,,0.00,,2013-06-20 13:53:00,
2013-06-20 10:02:00,71.0,64.0,-100.00,South,188,1.0,2.0,78,0.00,,,0.00,,2013-06-20 14:02:00,
2013-06-20 10:11:00,71.0,64.0,-100.00,South,188,1.0,2.0,78,0.00,,,0.00,,2013-06-20 14:11:00,
2013-06-20 10:22:00,71.0,64.0,-100.00,South,188,1.0,2.0,78,0.00,,,0.00,,2013-06-20 14:22:00,
2013-06-20 10:32:00,74.0,63.0,-100.00,SSE,152,1.0,2.0,71,0.00,,,0.00,,2013-06-20 14:32:00,
2013-06-20 10:42:00,74.0,63.0,-100.00,SSE,152,1.0,2.0,71,0.00,,,0.00,,2013-06-20 14:42:00,
2013-06-20 10:53:00,73.0,64.0,-100.00,SSW,209,2.0,4.0,72,0.00,,,0.00,,2013-06-20 14:53:00,
2013-06-20 11:02:00,74.0,65.0,-100.00,SSW,195,0.0,1.0,73,0.00,,,0.00,,2013-06-20 15:02:00,
2013-06-20 11:11:00,74.0,65.0,-100.00,SSW,195,0.0,1.0,73,0.00,,,0.00,,2013-06-20 15:11:00,
2013-06-20 11:22:00,75.0,67.0,-100.00,SE,131,1.0,3.0,75,0.00,,,0.00,,2013-06-20 15:22:00,
2013-06-20 11:33:00,74.0,63.0,-100.00,SSW,206,2.0,4.0,68,0.00,,,0.00,,2013-06-20 15:33:00,
2013-06-20 11:43:00,74.0,63.0,-100.00,SSW,206,2.0,4.0,68,0.00,,,0.00,,2013-06-20 15:43:00,
2013-06-20 11:53:00,75.0,65.0,-100.00,South,185,2.0,5.0,71,0.00,,,0.00,,2013-06-20 15:53:00,
2013-06-20 12:01:00,74.0,65.0,-100.00,SE,133,1.0,3.0,73,0.00,,,0.00,,2013-06-20 16:01:00,
2013-06-20 12:12:00,74.0,65.0,-100.00,SE,133,1.0,3.0,73,0.00,,,0.00,,2013-06-20 16:12:00,
2013-06-20 12:22:00,75.0,65.0,-100.00,SSW,193,2.0,5.0,72,0.00,,,0.00,,2013-06-20 16:22:00,
2013-06-20 12:33:00,75.0,65.0,-100.00,SSW,193,2.0,5.0,72,0.00,,,0.00,,2013-06-20 16:33:00,
2013-06-20 12:43:00,75.0,65.0,-100.00,SSW,193,2.0,5.0,72,0.00,,,0.00,,2013-06-20 16:43:00,
2013-06-20 13:02:00,75.0,64.0,-100.00,SW,223,2.0,3.0,67,0.00,,,0.00,,2013-06-20 17:02:00,
2013-06-20 13:12:00,75.0,65.0,-100.00,NNW,328,2.0,3.0,70,0.00,,,0.00,,2013-06-20 17:12:00,
2013-06-20 13:22:00,75.0,65.0,-100.00,NNW,328,2.0,3.0,70,0.00,,,0.00,,2013-06-20 17:22:00,
2013-06-20 13:32:00,77.0,63.0,-100.00,SW,222,2.0,4.0,61,0.00,,,0.00,,2013-06-20 17:32:00,
2013-06-20 13:43:00,77.0,63.0,-100.00,SW,222,2.0,4.0,61,0.00,,,0.00,,2013-06-20 17:43:00,
2013-06-20 13:53:00,78.0,65.0,-100.00,South,181,1.0,2.0,66,0.00,,,0.00,,2013-06-20 17:53:00,
2013-06-20 14:01:00,77.0,62.0,-100.00,SW,222,2.0,4.0,60,0.00,,,0.00,,2013-06-20 18:01:00,
2013-06-20 14:11:00,77.0,62.0,-100.00,SW,222,2.0,4.0,60,0.00,,,0.00,,2013-06-20 18:11:00,
2013-06-20 14:22:00,77.0,62.0,-100.00,SW,222,2.0,4.0,60,0.00,,,0.00,,2013-06-20 18:22:00,
2013-06-20 14:33:00,79.0,64.0,-100.00,SSE,160,1.0,2.0,61,0.00,,,0.00,,2013-06-20 18:33:00,
2013-06-20 14:43:00,80.0,64.0,-100.00,SE,130,3.0,4.0,59,0.00,,,0.00,,2013-06-20 18:43:00,
2013-06-20 14:53:00,79.0,63.0,-100.00,ESE,106,4.0,5.0,58,0.00,,,0.00,,2013-06-20 18:53:00,
2013-06-20 15:01:00,80.0,64.0,-100.00,SE,136,2.0,3.0,60,0.00,,,0.00,,2013-06-20 19:01:00,
2013-06-20 15:11:00,80.0,64.0,-100.00,SE,136,2.0,3.0,60,0.00,,,0.00,,2013-06-20 19:11:00,
2013-06-20 15:22:00,80.0,66.0,-100.00,SE,137,1.0,3.0,61,0.00,,,0.00,,2013-06-20 19:22:00,
2013-06-20 15:34:00,81.0,65.0,-100.00,South,188,2.0,3.0,59,0.00,,,0.00,,2013-06-20 19:34:00,
2013-06-20 15:43:00,81.0,65.0,-100.00,South,188,2.0,3.0,59,0.00,,,0.00,,2013-06-20 19:43:00,
2013-06-20 15:52:00,80.0,66.0,-100.00,SW,216,3.0,4.0,63,0.00,,,0.00,,2013-06-20 19:52:00,
2013-06-20 16:02:00,81.0,64.0,-100.00,SW,224,3.0,5.0,57,0.00,,,0.00,,2013-06-20 20:02:00,
2013-06-20 16:11:00,81.0,64.0,-100.00,SW,224,3.0,5.0,57,0.00,,,0.00,,2013-06-20 20:11:00,
2013-06-20 16:42:00,79.0,62.0,-100.00,ESE,123,2.0,4.0,56,0.00,,,0.00,,2013-06-20 20:42:00,
2013-06-20 16:53:00,80.0,61.0,-100.00,SE,130,2.0,4.0,53,0.00,,,0.00,,2013-06-20 20:53:00,